sensor_id;sensor_type;location;lat;lon;timestamp;P1;durP1;ratioP1;P2;durP2;ratioP2
34585;SDS011;20816;50.950;11.108;2022-10-30T00:00:53;7.50;;;1.85;;
34585;SDS011;20816;50.950;11.108;2022-10-30T00:03:19;6.25;;;2.10;;
34585;SDS011;20816;50.950;11.108;2022-10-30T00:05:47;9.77;;;2.00;;
34585;SDS011;20816;50.950;11.108;2022-10-30T00:08:16;3.63;;;2.30;;
34585;SDS011;20816;50.950;11.108;2022-10-30T00:10:44;7.57;;;2.05;;
34585;SDS011;20816;50.950;11.108;2022-10-30T00:13:12;6.43;;;2.53;;
34585;SDS011;20816;50.950;11.108;2022-10-30T00:15:39;2.40;;;1.50;;
34585;SDS011;20816;50.950;11.108;2022-10-30T00:18:12;12.27;;;2.28;;
34585;SDS011;20816;50.950;11.108;2022-10-30T00:20:39;2.67;;;1.98;;
34585;SDS011;20816;50.950;11.108;2022-10-30T00:23:06;12.75;;;2.17;;
34585;SDS011;20816;50.950;11.108;2022-10-30T00:25:34;7.22;;;3.17;;
34585;SDS011;20816;50.950;11.108;2022-10-30T00:28:02;7.32;;;2.50;;
34585;SDS011;20816;50.950;11.108;2022-10-30T00:30:32;2.97;;;1.25;;
34585;SDS011;20816;50.950;11.108;2022-10-30T00:33:00;4.93;;;2.17;;
34585;SDS011;20816;50.950;11.108;2022-10-30T00:35:27;5.45;;;1.90;;
34585;SDS011;20816;50.950;11.108;2022-10-30T00:37:54;3.90;;;1.90;;
34585;SDS011;20816;50.950;11.108;2022-10-30T00:40:21;4.82;;;1.77;;
34585;SDS011;20816;50.950;11.108;2022-10-30T00:42:49;4.97;;;2.72;;
34585;SDS011;20816;50.950;11.108;2022-10-30T00:45:16;5.15;;;2.22;;
34585;SDS011;20816;50.950;11.108;2022-10-30T00:47:44;4.03;;;1.70;;
34585;SDS011;20816;50.950;11.108;2022-10-30T00:50:18;6.00;;;1.73;;
34585;SDS011;20816;50.950;11.108;2022-10-30T00:52:51;7.45;;;2.25;;
34585;SDS011;20816;50.950;11.108;2022-10-30T00:55:24;3.80;;;1.88;;
34585;SDS011;20816;50.950;11.108;2022-10-30T00:57:56;2.30;;;1.75;;
34585;SDS011;20816;50.950;11.108;2022-10-30T01:00:24;2.92;;;1.52;;
34585;SDS011;20816;50.950;11.108;2022-10-30T01:02:54;5.57;;;1.73;;
34585;SDS011;20816;50.950;11.108;2022-10-30T01:05:24;8.68;;;2.28;;
34585;SDS011;20816;50.950;11.108;2022-10-30T01:07:53;3.72;;;1.88;;
34585;SDS011;20816;50.950;11.108;2022-10-30T01:10:21;5.55;;;1.80;;
34585;SDS011;20816;50.950;11.108;2022-10-30T01:12:48;7.05;;;2.17;;
34585;SDS011;20816;50.950;11.108;2022-10-30T01:15:18;2.47;;;1.75;;
34585;SDS011;20816;50.950;11.108;2022-10-30T01:32:11;4.75;;;1.50;;
34585;SDS011;20816;50.950;11.108;2022-10-30T01:34:58;4.90;;;2.15;;
34585;SDS011;20816;50.950;11.108;2022-10-30T01:37:35;3.58;;;1.88;;
34585;SDS011;20816;50.950;11.108;2022-10-30T01:40:16;1.98;;;1.63;;
34585;SDS011;20816;50.950;11.108;2022-10-30T01:42:53;3.90;;;1.55;;
34585;SDS011;20816;50.950;11.108;2022-10-30T01:50:38;3.13;;;1.58;;
34585;SDS011;20816;50.950;11.108;2022-10-30T02:01:42;12.23;;;1.85;;
34585;SDS011;20816;50.950;11.108;2022-10-30T02:04:10;3.67;;;1.85;;
34585;SDS011;20816;50.950;11.108;2022-10-30T02:06:38;7.00;;;2.28;;
34585;SDS011;20816;50.950;11.108;2022-10-30T02:09:05;4.28;;;2.10;;
34585;SDS011;20816;50.950;11.108;2022-10-30T02:11:33;7.38;;;2.38;;
34585;SDS011;20816;50.950;11.108;2022-10-30T02:14:04;3.03;;;2.22;;
34585;SDS011;20816;50.950;11.108;2022-10-30T02:16:33;5.25;;;1.45;;
34585;SDS011;20816;50.950;11.108;2022-10-30T02:19:02;4.00;;;1.67;;
34585;SDS011;20816;50.950;11.108;2022-10-30T02:21:29;6.25;;;2.05;;
34585;SDS011;20816;50.950;11.108;2022-10-30T02:23:56;2.60;;;1.85;;
34585;SDS011;20816;50.950;11.108;2022-10-30T02:26:22;7.05;;;2.15;;
34585;SDS011;20816;50.950;11.108;2022-10-30T02:28:49;5.78;;;2.30;;
34585;SDS011;20816;50.950;11.108;2022-10-30T02:31:16;3.40;;;1.77;;
34585;SDS011;20816;50.950;11.108;2022-10-30T02:33:44;8.10;;;2.55;;
34585;SDS011;20816;50.950;11.108;2022-10-30T02:36:12;7.90;;;2.85;;
34585;SDS011;20816;50.950;11.108;2022-10-30T02:38:41;7.43;;;3.45;;
34585;SDS011;20816;50.950;11.108;2022-10-30T02:41:08;7.72;;;3.95;;
34585;SDS011;20816;50.950;11.108;2022-10-30T02:43:36;9.40;;;4.18;;
34585;SDS011;20816;50.950;11.108;2022-10-30T02:46:03;7.22;;;4.78;;
34585;SDS011;20816;50.950;11.108;2022-10-30T02:48:30;8.50;;;3.73;;
34585;SDS011;20816;50.950;11.108;2022-10-30T02:51:02;5.85;;;3.72;;
34585;SDS011;20816;50.950;11.108;2022-10-30T02:53:29;8.20;;;4.38;;
34585;SDS011;20816;50.950;11.108;2022-10-30T02:56:01;7.53;;;3.50;;
34585;SDS011;20816;50.950;11.108;2022-10-30T02:58:29;11.23;;;4.00;;
34585;SDS011;20816;50.950;11.108;2022-10-30T03:00:55;7.57;;;4.07;;
34585;SDS011;20816;50.950;11.108;2022-10-30T03:03:26;9.83;;;4.30;;
34585;SDS011;20816;50.950;11.108;2022-10-30T03:05:53;10.13;;;4.57;;
34585;SDS011;20816;50.950;11.108;2022-10-30T03:08:19;10.97;;;5.30;;
34585;SDS011;20816;50.950;11.108;2022-10-30T03:10:46;7.50;;;3.80;;
34585;SDS011;20816;50.950;11.108;2022-10-30T03:13:12;11.20;;;5.03;;
34585;SDS011;20816;50.950;11.108;2022-10-30T03:15:40;17.55;;;4.57;;
34585;SDS011;20816;50.950;11.108;2022-10-30T03:18:07;8.27;;;3.87;;
34585;SDS011;20816;50.950;11.108;2022-10-30T03:20:33;8.80;;;4.80;;
34585;SDS011;20816;50.950;11.108;2022-10-30T03:23:00;11.57;;;4.80;;
34585;SDS011;20816;50.950;11.108;2022-10-30T03:25:26;14.30;;;5.00;;
34585;SDS011;20816;50.950;11.108;2022-10-30T03:27:53;7.60;;;4.40;;
34585;SDS011;20816;50.950;11.108;2022-10-30T03:30:20;12.60;;;5.27;;
34585;SDS011;20816;50.950;11.108;2022-10-30T03:32:46;11.40;;;4.63;;
34585;SDS011;20816;50.950;11.108;2022-10-30T03:35:36;7.43;;;3.90;;
34585;SDS011;20816;50.950;11.108;2022-10-30T03:38:03;7.83;;;3.93;;
34585;SDS011;20816;50.950;11.108;2022-10-30T03:40:29;7.57;;;3.10;;
34585;SDS011;20816;50.950;11.108;2022-10-30T03:42:56;3.50;;;2.67;;
34585;SDS011;20816;50.950;11.108;2022-10-30T03:45:23;6.13;;;3.07;;
34585;SDS011;20816;50.950;11.108;2022-10-30T03:47:49;12.50;;;4.00;;
34585;SDS011;20816;50.950;11.108;2022-10-30T03:50:16;6.47;;;2.87;;
34585;SDS011;20816;50.950;11.108;2022-10-30T03:52:42;4.27;;;2.47;;
34585;SDS011;20816;50.950;11.108;2022-10-30T03:55:09;6.80;;;2.23;;
34585;SDS011;20816;50.950;11.108;2022-10-30T03:57:36;4.28;;;1.98;;
34585;SDS011;20816;50.950;11.108;2022-10-30T04:00:03;3.30;;;1.87;;
34585;SDS011;20816;50.950;11.108;2022-10-30T04:02:30;3.93;;;2.40;;
34585;SDS011;20816;50.950;11.108;2022-10-30T04:04:57;8.73;;;1.60;;
34585;SDS011;20816;50.950;11.108;2022-10-30T04:07:24;7.30;;;2.08;;
34585;SDS011;20816;50.950;11.108;2022-10-30T04:09:50;4.05;;;2.58;;
34585;SDS011;20816;50.950;11.108;2022-10-30T04:12:17;3.90;;;1.38;;
34585;SDS011;20816;50.950;11.108;2022-10-30T04:14:43;4.93;;;1.88;;
34585;SDS011;20816;50.950;11.108;2022-10-30T04:17:10;4.55;;;2.05;;
34585;SDS011;20816;50.950;11.108;2022-10-30T04:19:37;4.60;;;1.63;;
34585;SDS011;20816;50.950;11.108;2022-10-30T04:22:03;4.43;;;1.73;;
34585;SDS011;20816;50.950;11.108;2022-10-30T04:24:31;5.25;;;2.00;;
34585;SDS011;20816;50.950;11.108;2022-10-30T04:26:57;5.55;;;2.08;;
34585;SDS011;20816;50.950;11.108;2022-10-30T04:29:24;4.75;;;1.70;;
34585;SDS011;20816;50.950;11.108;2022-10-30T04:31:50;4.63;;;1.67;;
34585;SDS011;20816;50.950;11.108;2022-10-30T04:34:17;13.73;;;2.37;;
34585;SDS011;20816;50.950;11.108;2022-10-30T04:36:44;12.27;;;1.90;;
34585;SDS011;20816;50.950;11.108;2022-10-30T04:39:11;2.03;;;1.80;;
34585;SDS011;20816;50.950;11.108;2022-10-30T04:41:37;5.13;;;1.60;;
34585;SDS011;20816;50.950;11.108;2022-10-30T04:44:04;4.68;;;1.83;;
34585;SDS011;20816;50.950;11.108;2022-10-30T04:46:31;5.75;;;2.67;;
34585;SDS011;20816;50.950;11.108;2022-10-30T04:48:57;8.73;;;2.75;;
34585;SDS011;20816;50.950;11.108;2022-10-30T04:51:24;5.43;;;2.45;;
34585;SDS011;20816;50.950;11.108;2022-10-30T04:53:51;6.30;;;2.00;;
34585;SDS011;20816;50.950;11.108;2022-10-30T04:56:19;4.20;;;1.83;;
34585;SDS011;20816;50.950;11.108;2022-10-30T04:58:46;3.53;;;1.60;;
34585;SDS011;20816;50.950;11.108;2022-10-30T05:01:13;7.75;;;1.35;;
34585;SDS011;20816;50.950;11.108;2022-10-30T05:03:40;3.78;;;2.20;;
34585;SDS011;20816;50.950;11.108;2022-10-30T05:06:12;2.92;;;1.80;;
34585;SDS011;20816;50.950;11.108;2022-10-30T05:08:45;5.30;;;3.08;;
34585;SDS011;20816;50.950;11.108;2022-10-30T05:11:11;6.93;;;1.83;;
34585;SDS011;20816;50.950;11.108;2022-10-30T05:13:38;5.30;;;1.92;;
34585;SDS011;20816;50.950;11.108;2022-10-30T05:16:05;3.92;;;1.92;;
34585;SDS011;20816;50.950;11.108;2022-10-30T05:18:31;8.95;;;2.00;;
34585;SDS011;20816;50.950;11.108;2022-10-30T05:20:58;3.60;;;1.40;;
34585;SDS011;20816;50.950;11.108;2022-10-30T05:23:24;2.85;;;1.58;;
34585;SDS011;20816;50.950;11.108;2022-10-30T05:25:51;6.50;;;3.15;;
34585;SDS011;20816;50.950;11.108;2022-10-30T05:28:18;4.55;;;1.60;;
34585;SDS011;20816;50.950;11.108;2022-10-30T05:30:44;9.65;;;1.83;;
34585;SDS011;20816;50.950;11.108;2022-10-30T05:33:11;3.33;;;1.70;;
34585;SDS011;20816;50.950;11.108;2022-10-30T05:35:38;3.33;;;1.40;;
34585;SDS011;20816;50.950;11.108;2022-10-30T05:38:06;6.30;;;2.60;;
34585;SDS011;20816;50.950;11.108;2022-10-30T05:40:33;4.13;;;2.22;;
34585;SDS011;20816;50.950;11.108;2022-10-30T05:43:00;9.50;;;2.20;;
34585;SDS011;20816;50.950;11.108;2022-10-30T05:45:27;6.78;;;1.52;;
34585;SDS011;20816;50.950;11.108;2022-10-30T05:47:58;8.05;;;2.13;;
34585;SDS011;20816;50.950;11.108;2022-10-30T05:50:27;6.30;;;1.40;;
34585;SDS011;20816;50.950;11.108;2022-10-30T05:52:54;4.80;;;2.83;;
34585;SDS011;20816;50.950;11.108;2022-10-30T05:55:25;7.80;;;2.45;;
34585;SDS011;20816;50.950;11.108;2022-10-30T05:58:00;2.30;;;1.73;;
34585;SDS011;20816;50.950;11.108;2022-10-30T06:00:29;4.17;;;1.40;;
34585;SDS011;20816;50.950;11.108;2022-10-30T06:02:58;7.80;;;1.73;;
34585;SDS011;20816;50.950;11.108;2022-10-30T06:05:28;7.20;;;2.20;;
34585;SDS011;20816;50.950;11.108;2022-10-30T06:07:56;4.90;;;2.40;;
34585;SDS011;20816;50.950;11.108;2022-10-30T06:10:23;2.17;;;1.40;;
34585;SDS011;20816;50.950;11.108;2022-10-30T06:12:53;8.57;;;3.40;;
34585;SDS011;20816;50.950;11.108;2022-10-30T06:15:21;6.70;;;2.47;;
34585;SDS011;20816;50.950;11.108;2022-10-30T06:17:48;2.43;;;1.50;;
34585;SDS011;20816;50.950;11.108;2022-10-30T06:20:16;4.53;;;1.80;;
34585;SDS011;20816;50.950;11.108;2022-10-30T06:25:20;5.03;;;2.07;;
34585;SDS011;20816;50.950;11.108;2022-10-30T06:27:47;3.60;;;1.47;;
34585;SDS011;20816;50.950;11.108;2022-10-30T06:30:13;4.20;;;2.10;;
34585;SDS011;20816;50.950;11.108;2022-10-30T06:32:40;13.10;;;2.20;;
34585;SDS011;20816;50.950;11.108;2022-10-30T06:35:07;5.43;;;1.80;;
34585;SDS011;20816;50.950;11.108;2022-10-30T06:37:34;6.47;;;1.90;;
34585;SDS011;20816;50.950;11.108;2022-10-30T06:40:00;9.70;;;1.50;;
34585;SDS011;20816;50.950;11.108;2022-10-30T06:42:27;5.70;;;2.60;;
34585;SDS011;20816;50.950;11.108;2022-10-30T06:44:53;6.10;;;1.43;;
34585;SDS011;20816;50.950;11.108;2022-10-30T06:47:20;3.03;;;1.37;;
34585;SDS011;20816;50.950;11.108;2022-10-30T06:49:47;6.33;;;1.80;;
34585;SDS011;20816;50.950;11.108;2022-10-30T06:52:13;4.43;;;1.70;;
34585;SDS011;20816;50.950;11.108;2022-10-30T06:54:40;5.67;;;1.60;;
34585;SDS011;20816;50.950;11.108;2022-10-30T06:57:06;2.13;;;1.37;;
34585;SDS011;20816;50.950;11.108;2022-10-30T06:59:33;3.07;;;1.60;;
34585;SDS011;20816;50.950;11.108;2022-10-30T07:02:00;5.43;;;1.67;;
34585;SDS011;20816;50.950;11.108;2022-10-30T07:04:30;3.67;;;1.60;;
34585;SDS011;20816;50.950;11.108;2022-10-30T07:06:57;4.80;;;2.43;;
34585;SDS011;20816;50.950;11.108;2022-10-30T07:09:23;9.03;;;3.13;;
34585;SDS011;20816;50.950;11.108;2022-10-30T07:11:50;4.07;;;1.63;;
34585;SDS011;20816;50.950;11.108;2022-10-30T07:14:22;5.27;;;2.27;;
34585;SDS011;20816;50.950;11.108;2022-10-30T07:16:48;2.50;;;1.80;;
34585;SDS011;20816;50.950;11.108;2022-10-30T07:19:15;5.97;;;1.70;;
34585;SDS011;20816;50.950;11.108;2022-10-30T07:21:41;5.37;;;1.47;;
34585;SDS011;20816;50.950;11.108;2022-10-30T07:24:08;8.63;;;3.40;;
34585;SDS011;20816;50.950;11.108;2022-10-30T07:26:34;5.80;;;1.67;;
34585;SDS011;20816;50.950;11.108;2022-10-30T07:29:03;2.53;;;1.33;;
34585;SDS011;20816;50.950;11.108;2022-10-30T07:31:30;2.60;;;1.33;;
34585;SDS011;20816;50.950;11.108;2022-10-30T07:34:07;4.67;;;2.87;;
34585;SDS011;20816;50.950;11.108;2022-10-30T07:36:34;4.40;;;1.60;;
34585;SDS011;20816;50.950;11.108;2022-10-30T07:39:01;2.73;;;1.40;;
34585;SDS011;20816;50.950;11.108;2022-10-30T07:41:27;3.27;;;1.27;;
34585;SDS011;20816;50.950;11.108;2022-10-30T07:43:54;2.53;;;1.40;;
34585;SDS011;20816;50.950;11.108;2022-10-30T07:46:20;4.03;;;1.37;;
34585;SDS011;20816;50.950;11.108;2022-10-30T07:48:47;7.70;;;2.80;;
34585;SDS011;20816;50.950;11.108;2022-10-30T07:51:14;3.00;;;1.15;;
34585;SDS011;20816;50.950;11.108;2022-10-30T07:53:40;3.30;;;1.65;;
34585;SDS011;20816;50.950;11.108;2022-10-30T07:56:07;5.60;;;1.48;;
34585;SDS011;20816;50.950;11.108;2022-10-30T07:58:33;2.88;;;1.55;;
34585;SDS011;20816;50.950;11.108;2022-10-30T08:01:00;5.68;;;2.20;;
34585;SDS011;20816;50.950;11.108;2022-10-30T08:03:28;9.13;;;1.20;;
34585;SDS011;20816;50.950;11.108;2022-10-30T08:05:55;3.08;;;1.48;;
34585;SDS011;20816;50.950;11.108;2022-10-30T08:08:23;3.60;;;1.67;;
34585;SDS011;20816;50.950;11.108;2022-10-30T08:10:50;2.70;;;1.27;;
34585;SDS011;20816;50.950;11.108;2022-10-30T08:13:16;1.95;;;1.38;;
34585;SDS011;20816;50.950;11.108;2022-10-30T08:15:43;2.42;;;1.13;;
34585;SDS011;20816;50.950;11.108;2022-10-30T08:18:10;4.63;;;1.20;;
34585;SDS011;20816;50.950;11.108;2022-10-30T08:20:37;4.28;;;2.13;;
34585;SDS011;20816;50.950;11.108;2022-10-30T08:23:04;6.00;;;1.25;;
34585;SDS011;20816;50.950;11.108;2022-10-30T08:25:30;3.78;;;1.25;;
34585;SDS011;20816;50.950;11.108;2022-10-30T08:28:01;4.30;;;2.17;;
34585;SDS011;20816;50.950;11.108;2022-10-30T08:30:33;2.10;;;1.75;;
34585;SDS011;20816;50.950;11.108;2022-10-30T08:33:01;4.40;;;1.55;;
34585;SDS011;20816;50.950;11.108;2022-10-30T08:35:29;6.55;;;2.03;;
34585;SDS011;20816;50.950;11.108;2022-10-30T08:37:56;2.63;;;1.50;;
34585;SDS011;20816;50.950;11.108;2022-10-30T08:40:25;2.30;;;1.10;;
34585;SDS011;20816;50.950;11.108;2022-10-30T08:42:52;2.60;;;1.10;;
34585;SDS011;20816;50.950;11.108;2022-10-30T08:45:20;4.30;;;1.55;;
34585;SDS011;20816;50.950;11.108;2022-10-30T08:47:56;4.88;;;1.35;;
34585;SDS011;20816;50.950;11.108;2022-10-30T08:50:25;3.45;;;1.52;;
34585;SDS011;20816;50.950;11.108;2022-10-30T08:52:52;4.55;;;1.98;;
34585;SDS011;20816;50.950;11.108;2022-10-30T08:55:20;3.92;;;1.70;;
34585;SDS011;20816;50.950;11.108;2022-10-30T08:57:46;1.98;;;1.20;;
34585;SDS011;20816;50.950;11.108;2022-10-30T09:00:13;7.43;;;2.00;;
34585;SDS011;20816;50.950;11.108;2022-10-30T09:02:40;5.20;;;2.00;;
34585;SDS011;20816;50.950;11.108;2022-10-30T09:05:07;8.00;;;3.08;;
34585;SDS011;20816;50.950;11.108;2022-10-30T09:07:34;3.03;;;1.88;;
34585;SDS011;20816;50.950;11.108;2022-10-30T09:10:02;10.38;;;3.58;;
34585;SDS011;20816;50.950;11.108;2022-10-30T09:12:30;6.75;;;2.47;;
34585;SDS011;20816;50.950;11.108;2022-10-30T09:14:56;7.22;;;2.97;;
34585;SDS011;20816;50.950;11.108;2022-10-30T09:17:23;6.32;;;2.00;;
34585;SDS011;20816;50.950;11.108;2022-10-30T09:19:50;8.40;;;2.72;;
34585;SDS011;20816;50.950;11.108;2022-10-30T09:22:16;5.82;;;1.85;;
34585;SDS011;20816;50.950;11.108;2022-10-30T09:24:43;4.05;;;1.73;;
34585;SDS011;20816;50.950;11.108;2022-10-30T09:27:10;5.40;;;2.05;;
34585;SDS011;20816;50.950;11.108;2022-10-30T09:29:37;20.45;;;2.50;;
34585;SDS011;20816;50.950;11.108;2022-10-30T09:32:03;8.10;;;2.97;;
34585;SDS011;20816;50.950;11.108;2022-10-30T09:34:35;6.10;;;3.10;;
34585;SDS011;20816;50.950;11.108;2022-10-30T09:37:03;4.00;;;2.60;;
34585;SDS011;20816;50.950;11.108;2022-10-30T09:39:30;4.82;;;1.92;;
34585;SDS011;20816;50.950;11.108;2022-10-30T09:42:20;7.75;;;2.55;;
34585;SDS011;20816;50.950;11.108;2022-10-30T09:56:48;11.30;;;4.32;;
34585;SDS011;20816;50.950;11.108;2022-10-30T10:02:00;15.40;;;4.78;;
34585;SDS011;20816;50.950;11.108;2022-10-30T10:04:47;9.57;;;4.55;;
34585;SDS011;20816;50.950;11.108;2022-10-30T10:07:21;13.00;;;5.05;;
34585;SDS011;20816;50.950;11.108;2022-10-30T10:09:53;10.02;;;3.90;;
34585;SDS011;20816;50.950;11.108;2022-10-30T10:14:59;6.60;;;3.17;;
34585;SDS011;20816;50.950;11.108;2022-10-30T10:17:33;9.43;;;3.25;;
34585;SDS011;20816;50.950;11.108;2022-10-30T10:20:05;7.95;;;3.50;;
34585;SDS011;20816;50.950;11.108;2022-10-30T10:22:58;8.77;;;4.70;;
34585;SDS011;20816;50.950;11.108;2022-10-30T10:25:27;9.18;;;3.60;;
34585;SDS011;20816;50.950;11.108;2022-10-30T10:30:43;6.05;;;3.35;;
34585;SDS011;20816;50.950;11.108;2022-10-30T10:33:20;8.13;;;3.75;;
34585;SDS011;20816;50.950;11.108;2022-10-30T10:36:04;7.40;;;3.38;;
34585;SDS011;20816;50.950;11.108;2022-10-30T10:38:55;8.95;;;3.55;;
34585;SDS011;20816;50.950;11.108;2022-10-30T10:41:44;8.25;;;3.45;;
34585;SDS011;20816;50.950;11.108;2022-10-30T10:48:00;6.25;;;2.97;;
34585;SDS011;20816;50.950;11.108;2022-10-30T10:50:15;7.55;;;2.17;;
34585;SDS011;20816;50.950;11.108;2022-10-30T10:53:13;6.65;;;1.80;;
34585;SDS011;20816;50.950;11.108;2022-10-30T10:55:48;3.78;;;1.85;;
34585;SDS011;20816;50.950;11.108;2022-10-30T10:58:32;7.15;;;1.83;;
34585;SDS011;20816;50.950;11.108;2022-10-30T11:01:05;5.82;;;2.63;;
34585;SDS011;20816;50.950;11.108;2022-10-30T11:03:54;6.50;;;2.92;;
34585;SDS011;20816;50.950;11.108;2022-10-30T11:06:26;4.97;;;2.13;;
34585;SDS011;20816;50.950;11.108;2022-10-30T11:11:48;6.00;;;2.95;;
34585;SDS011;20816;50.950;11.108;2022-10-30T11:14:50;8.57;;;2.97;;
34585;SDS011;20816;50.950;11.108;2022-10-30T11:17:20;3.88;;;2.13;;
34585;SDS011;20816;50.950;11.108;2022-10-30T11:19:51;5.97;;;2.40;;
34585;SDS011;20816;50.950;11.108;2022-10-30T11:22:30;4.35;;;2.05;;
34585;SDS011;20816;50.950;11.108;2022-10-30T11:25:21;9.88;;;2.05;;
34585;SDS011;20816;50.950;11.108;2022-10-30T11:27:57;2.33;;;1.92;;
34585;SDS011;20816;50.950;11.108;2022-10-30T11:30:26;19.80;;;2.90;;
34585;SDS011;20816;50.950;11.108;2022-10-30T11:32:54;5.57;;;2.67;;
34585;SDS011;20816;50.950;11.108;2022-10-30T11:35:22;6.00;;;2.58;;
34585;SDS011;20816;50.950;11.108;2022-10-30T11:37:51;3.03;;;1.95;;
34585;SDS011;20816;50.950;11.108;2022-10-30T11:40:45;4.75;;;2.63;;
34585;SDS011;20816;50.950;11.108;2022-10-30T11:43:14;6.43;;;2.40;;
34585;SDS011;20816;50.950;11.108;2022-10-30T11:45:45;3.13;;;2.00;;
34585;SDS011;20816;50.950;11.108;2022-10-30T11:48:21;15.57;;;2.35;;
34585;SDS011;20816;50.950;11.108;2022-10-30T11:50:57;4.40;;;2.28;;
34585;SDS011;20816;50.950;11.108;2022-10-30T11:53:27;7.05;;;2.85;;
34585;SDS011;20816;50.950;11.108;2022-10-30T11:56:00;7.95;;;2.00;;
34585;SDS011;20816;50.950;11.108;2022-10-30T11:58:36;6.47;;;2.65;;
34585;SDS011;20816;50.950;11.108;2022-10-30T12:03:52;6.63;;;2.17;;
34585;SDS011;20816;50.950;11.108;2022-10-30T12:08:59;9.32;;;1.85;;
34585;SDS011;20816;50.950;11.108;2022-10-30T12:11:41;5.40;;;2.35;;
34585;SDS011;20816;50.950;11.108;2022-10-30T12:14:17;7.38;;;2.10;;
34585;SDS011;20816;50.950;11.108;2022-10-30T12:16:49;10.05;;;2.17;;
34585;SDS011;20816;50.950;11.108;2022-10-30T12:19:19;6.82;;;3.10;;
34585;SDS011;20816;50.950;11.108;2022-10-30T12:21:49;4.00;;;2.17;;
34585;SDS011;20816;50.950;11.108;2022-10-30T12:24:20;6.57;;;2.45;;
34585;SDS011;20816;50.950;11.108;2022-10-30T12:26:54;3.95;;;2.22;;
34585;SDS011;20816;50.950;11.108;2022-10-30T12:29:26;6.70;;;2.28;;
34585;SDS011;20816;50.950;11.108;2022-10-30T12:32:25;7.25;;;2.20;;
34585;SDS011;20816;50.950;11.108;2022-10-30T12:35:10;10.60;;;2.30;;
34585;SDS011;20816;50.950;11.108;2022-10-30T12:37:47;7.95;;;1.98;;
34585;SDS011;20816;50.950;11.108;2022-10-30T12:40:22;6.57;;;2.30;;
34585;SDS011;20816;50.950;11.108;2022-10-30T12:43:05;7.70;;;2.58;;
34585;SDS011;20816;50.950;11.108;2022-10-30T12:45:47;5.10;;;2.78;;
34585;SDS011;20816;50.950;11.108;2022-10-30T12:51:17;3.95;;;1.83;;
34585;SDS011;20816;50.950;11.108;2022-10-30T12:56:47;6.47;;;2.58;;
34585;SDS011;20816;50.950;11.108;2022-10-30T12:59:24;4.90;;;1.83;;
34585;SDS011;20816;50.950;11.108;2022-10-30T13:02:11;6.80;;;2.47;;
34585;SDS011;20816;50.950;11.108;2022-10-30T13:04:46;7.55;;;2.40;;
34585;SDS011;20816;50.950;11.108;2022-10-30T13:12:52;7.80;;;2.13;;
34585;SDS011;20816;50.950;11.108;2022-10-30T13:15:26;7.30;;;2.20;;
34585;SDS011;20816;50.950;11.108;2022-10-30T13:17:56;4.80;;;1.92;;
34585;SDS011;20816;50.950;11.108;2022-10-30T13:20:25;5.18;;;2.17;;
34585;SDS011;20816;50.950;11.108;2022-10-30T13:22:57;7.40;;;2.67;;
34585;SDS011;20816;50.950;11.108;2022-10-30T13:25:39;8.25;;;2.10;;
34585;SDS011;20816;50.950;11.108;2022-10-30T13:33:29;6.18;;;2.10;;
34585;SDS011;20816;50.950;11.108;2022-10-30T13:36:10;6.68;;;2.00;;
34585;SDS011;20816;50.950;11.108;2022-10-30T13:38:44;5.18;;;1.92;;
34585;SDS011;20816;50.950;11.108;2022-10-30T13:41:53;6.32;;;2.00;;
34585;SDS011;20816;50.950;11.108;2022-10-30T13:44:30;4.97;;;1.90;;
34585;SDS011;20816;50.950;11.108;2022-10-30T13:49:53;4.82;;;2.38;;
34585;SDS011;20816;50.950;11.108;2022-10-30T13:52:23;7.65;;;1.80;;
34585;SDS011;20816;50.950;11.108;2022-10-30T13:57:56;6.82;;;2.10;;
34585;SDS011;20816;50.950;11.108;2022-10-30T14:01:16;5.00;;;1.95;;
34585;SDS011;20816;50.950;11.108;2022-10-30T14:03:51;5.90;;;3.10;;
34585;SDS011;20816;50.950;11.108;2022-10-30T14:06:51;7.65;;;2.60;;
34585;SDS011;20816;50.950;11.108;2022-10-30T14:15:31;2.67;;;1.98;;
34585;SDS011;20816;50.950;11.108;2022-10-30T14:20:38;4.47;;;1.98;;
34585;SDS011;20816;50.950;11.108;2022-10-30T14:28:27;3.88;;;1.67;;
34585;SDS011;20816;50.950;11.108;2022-10-30T14:31:05;6.88;;;2.88;;
34585;SDS011;20816;50.950;11.108;2022-10-30T14:38:51;5.70;;;2.03;;
34585;SDS011;20816;50.950;11.108;2022-10-30T14:41:39;5.38;;;2.63;;
34585;SDS011;20816;50.950;11.108;2022-10-30T14:44:33;3.53;;;1.80;;
34585;SDS011;20816;50.950;11.108;2022-10-30T15:03:04;5.13;;;2.25;;
34585;SDS011;20816;50.950;11.108;2022-10-30T15:05:38;4.28;;;1.83;;
34585;SDS011;20816;50.950;11.108;2022-10-30T15:13:33;3.97;;;2.10;;
34585;SDS011;20816;50.950;11.108;2022-10-30T15:16:01;3.00;;;1.23;;
34585;SDS011;20816;50.950;11.108;2022-10-30T15:18:30;4.82;;;1.70;;
34585;SDS011;20816;50.950;11.108;2022-10-30T15:20:59;5.63;;;1.83;;
34585;SDS011;20816;50.950;11.108;2022-10-30T15:23:31;2.72;;;1.33;;
34585;SDS011;20816;50.950;11.108;2022-10-30T15:26:04;9.43;;;2.00;;
34585;SDS011;20816;50.950;11.108;2022-10-30T15:28:35;5.53;;;2.08;;
34585;SDS011;20816;50.950;11.108;2022-10-30T15:31:19;5.38;;;2.00;;
34585;SDS011;20816;50.950;11.108;2022-10-30T15:33:51;5.40;;;1.42;;
34585;SDS011;20816;50.950;11.108;2022-10-30T15:36:24;7.13;;;2.10;;
34585;SDS011;20816;50.950;11.108;2022-10-30T15:41:57;7.15;;;1.52;;
34585;SDS011;20816;50.950;11.108;2022-10-30T15:44:27;5.32;;;1.95;;
34585;SDS011;20816;50.950;11.108;2022-10-30T15:46:56;7.13;;;2.00;;
34585;SDS011;20816;50.950;11.108;2022-10-30T15:49:29;4.40;;;1.38;;
34585;SDS011;20816;50.950;11.108;2022-10-30T15:51:57;2.08;;;1.20;;
34585;SDS011;20816;50.950;11.108;2022-10-30T15:54:27;3.95;;;1.42;;
34585;SDS011;20816;50.950;11.108;2022-10-30T15:56:57;3.58;;;1.38;;
34585;SDS011;20816;50.950;11.108;2022-10-30T15:59:53;1.98;;;1.00;;
34585;SDS011;20816;50.950;11.108;2022-10-30T16:02:23;3.92;;;1.52;;
34585;SDS011;20816;50.950;11.108;2022-10-30T16:04:52;6.32;;;1.83;;
34585;SDS011;20816;50.950;11.108;2022-10-30T16:07:23;10.35;;;1.95;;
34585;SDS011;20816;50.950;11.108;2022-10-30T16:09:58;8.57;;;2.40;;
34585;SDS011;20816;50.950;11.108;2022-10-30T16:12:31;5.85;;;1.92;;
34585;SDS011;20816;50.950;11.108;2022-10-30T16:15:01;4.25;;;1.52;;
34585;SDS011;20816;50.950;11.108;2022-10-30T16:17:33;3.75;;;1.55;;
34585;SDS011;20816;50.950;11.108;2022-10-30T16:20:00;2.25;;;1.10;;
34585;SDS011;20816;50.950;11.108;2022-10-30T16:22:28;5.88;;;1.48;;
34585;SDS011;20816;50.950;11.108;2022-10-30T16:24:59;3.38;;;1.25;;
34585;SDS011;20816;50.950;11.108;2022-10-30T16:27:26;2.55;;;1.20;;
34585;SDS011;20816;50.950;11.108;2022-10-30T16:29:55;3.95;;;1.38;;
34585;SDS011;20816;50.950;11.108;2022-10-30T16:32:23;2.45;;;1.75;;
34585;SDS011;20816;50.950;11.108;2022-10-30T16:34:59;3.00;;;1.02;;
34585;SDS011;20816;50.950;11.108;2022-10-30T16:37:32;6.13;;;1.90;;
34585;SDS011;20816;50.950;11.108;2022-10-30T16:40:02;1.60;;;1.25;;
34585;SDS011;20816;50.950;11.108;2022-10-30T16:42:36;3.65;;;1.92;;
34585;SDS011;20816;50.950;11.108;2022-10-30T16:47:38;3.80;;;1.63;;
34585;SDS011;20816;50.950;11.108;2022-10-30T16:50:09;3.60;;;1.67;;
34585;SDS011;20816;50.950;11.108;2022-10-30T16:52:41;5.95;;;2.30;;
34585;SDS011;20816;50.950;11.108;2022-10-30T16:55:13;5.88;;;1.95;;
34585;SDS011;20816;50.950;11.108;2022-10-30T16:57:45;4.68;;;1.95;;
34585;SDS011;20816;50.950;11.108;2022-10-30T17:00:19;4.63;;;1.45;;
34585;SDS011;20816;50.950;11.108;2022-10-30T17:02:53;5.28;;;1.52;;
34585;SDS011;20816;50.950;11.108;2022-10-30T17:05:32;5.07;;;2.20;;